createdAt,value
2018-07-04T00:00:15.527Z,44.40
2018-07-04T00:09:50.843Z,44.50
2018-07-04T00:12:30.409Z,45.50
2018-07-04T00:15:09.999Z,45.20
2018-07-04T00:17:49.825Z,45.50
2018-07-04T00:20:34.904Z,45.60
2018-07-04T00:23:14.747Z,44.80
2018-07-04T00:25:54.406Z,45.80
2018-07-04T00:28:34.082Z,46.10
2018-07-04T00:31:13.717Z,46.10
2018-07-04T00:33:53.294Z,46.30
2018-07-04T00:36:32.870Z,46.50
2018-07-04T00:39:12.563Z,46.10
2018-07-04T00:41:52.375Z,46.20
2018-07-04T00:44:31.903Z,46.50
2018-07-04T00:47:11.582Z,46.50
2018-07-04T00:49:51.163Z,46.80
2018-07-04T00:52:30.762Z,46.90
2018-07-04T00:55:10.368Z,47.30
2018-07-04T00:57:50.106Z,47.10
2018-07-04T01:00:30.185Z,47.60
2018-07-04T01:03:10.040Z,47.50
2018-07-04T01:05:49.712Z,47.70
2018-07-04T01:08:29.289Z,47.80
2018-07-04T01:11:08.802Z,47.80
2018-07-04T01:13:48.410Z,47.70
2018-07-04T01:16:28.014Z,48.00
2018-07-04T01:19:07.689Z,48.00
2018-07-04T01:21:47.181Z,48.00
2018-07-04T01:24:26.972Z,47.80
2018-07-04T01:27:06.721Z,47.80
2018-07-04T01:29:46.439Z,47.60
2018-07-04T01:32:26.046Z,48.30
2018-07-04T01:35:05.615Z,48.20
2018-07-04T01:37:45.578Z,48.30
2018-07-04T01:40:25.165Z,48.30
2018-07-04T01:43:04.658Z,48.40
2018-07-04T01:45:44.281Z,48.40
2018-07-04T01:48:23.740Z,48.30
2018-07-04T01:51:03.341Z,48.90
2018-07-04T01:53:43.182Z,49.20
2018-07-04T01:56:22.898Z,49.00
2018-07-04T01:59:02.633Z,49.00
2018-07-04T02:01:42.285Z,50.00
2018-07-04T02:04:21.861Z,50.00
2018-07-04T02:07:01.653Z,50.10
2018-07-04T02:09:41.407Z,50.50
2018-07-04T02:12:21.067Z,50.20
2018-07-04T02:15:00.749Z,50.50
2018-07-04T02:17:40.330Z,50.90
2018-07-04T02:20:21.169Z,51.40
2018-07-04T02:23:00.960Z,50.80
2018-07-04T02:25:40.737Z,50.60
2018-07-04T02:28:20.495Z,50.50
2018-07-04T02:31:00.119Z,50.20
2018-07-04T02:33:39.918Z,49.90
2018-07-04T02:36:20.893Z,50.00
2018-07-04T02:39:00.436Z,50.60
2018-07-04T02:41:40.185Z,50.30
2018-07-04T02:44:19.774Z,50.40
2018-07-04T02:46:59.309Z,50.90
2018-07-04T02:49:38.919Z,51.20
2018-07-04T02:52:18.528Z,51.40
2018-07-04T02:54:58.084Z,50.30
2018-07-04T02:57:38.255Z,51.50
2018-07-04T03:00:17.950Z,51.60
2018-07-04T03:02:57.874Z,51.70
2018-07-04T03:05:37.609Z,52.10
2018-07-04T03:08:17.195Z,52.10
2018-07-04T03:10:56.685Z,52.50
2018-07-04T03:13:36.787Z,52.10
2018-07-04T03:16:16.388Z,51.80
2018-07-04T03:18:56.031Z,52.50
2018-07-04T03:21:35.745Z,53.00
2018-07-04T03:24:15.493Z,53.30
2018-07-04T03:26:55.042Z,53.30
2018-07-04T03:29:34.687Z,52.90
2018-07-04T03:32:14.257Z,52.80
2018-07-04T03:34:53.954Z,52.70
2018-07-04T03:37:33.628Z,52.90
2018-07-04T03:40:13.319Z,52.60
2018-07-04T03:42:52.989Z,52.60
2018-07-04T03:45:32.707Z,51.90
2018-07-04T03:50:46.124Z,51.70
2018-07-04T03:53:25.905Z,51.50
2018-07-04T03:56:05.633Z,50.90
2018-07-04T03:58:45.602Z,51.70
2018-07-04T04:01:25.191Z,50.50
2018-07-04T04:04:04.887Z,50.60
2018-07-04T04:06:44.482Z,50.90
2018-07-04T04:09:24.150Z,51.00
2018-07-04T04:12:03.954Z,50.70
2018-07-04T04:14:43.930Z,50.20
2018-07-04T04:17:23.705Z,50.00
2018-07-04T04:22:37.176Z,49.50
2018-07-04T04:25:16.899Z,49.40
2018-07-04T04:27:56.513Z,49.00
2018-07-04T04:30:36.461Z,49.10
2018-07-04T04:33:16.179Z,48.80
2018-07-04T04:35:55.745Z,48.50
2018-07-04T04:38:35.493Z,48.40
2018-07-04T04:41:15.134Z,48.10
2018-07-04T04:43:54.865Z,48.40
2018-07-04T04:46:34.350Z,48.80
2018-07-04T04:49:13.884Z,47.70
2018-07-04T04:51:53.475Z,48.20
2018-07-04T04:54:33.200Z,47.30
2018-07-04T04:57:12.739Z,46.90
2018-07-04T04:59:52.394Z,47.60
2018-07-04T05:02:32.002Z,46.70
2018-07-04T05:07:45.213Z,46.20
2018-07-04T05:10:24.892Z,47.10
2018-07-04T05:13:04.438Z,46.30
2018-07-04T05:15:44.173Z,46.40
2018-07-04T05:18:23.870Z,46.50
2018-07-04T05:21:03.516Z,46.40
2018-07-04T05:23:43.189Z,45.80
2018-07-04T05:28:56.636Z,46.30
2018-07-04T05:31:36.282Z,45.60
2018-07-04T05:34:15.995Z,45.70
2018-07-04T05:36:55.680Z,45.10
2018-07-04T05:39:35.524Z,45.20
2018-07-04T05:42:14.988Z,44.70
2018-07-04T05:44:54.836Z,44.50
2018-07-04T05:47:34.744Z,44.60
2018-07-04T05:50:14.314Z,44.40
2018-07-04T05:52:54.259Z,43.90
2018-07-04T05:55:33.902Z,43.90
2018-07-04T05:58:13.424Z,43.70
2018-07-04T06:00:53.255Z,43.60
2018-07-04T06:03:33.005Z,43.60
2018-07-04T06:06:12.831Z,44.00
2018-07-04T06:08:52.442Z,43.70
2018-07-04T06:11:32.342Z,43.50
2018-07-04T06:14:12.090Z,43.50
2018-07-04T06:16:51.773Z,43.20
2018-07-04T06:19:31.528Z,42.60
2018-07-04T06:22:11.215Z,42.90
2018-07-04T06:24:50.918Z,42.80
2018-07-04T06:27:30.495Z,42.50
2018-07-04T06:30:10.294Z,42.30
2018-07-04T06:32:49.954Z,42.10
2018-07-04T06:35:29.678Z,41.80
2018-07-04T06:37:57.007Z,41.90
2018-07-04T06:40:24.338Z,42.00
2018-07-04T06:42:51.705Z,42.10
2018-07-04T06:45:19.018Z,42.10
2018-07-04T06:47:46.371Z,42.30
2018-07-04T06:50:13.750Z,41.30
2018-07-04T06:52:41.118Z,41.60
2018-07-04T06:55:08.426Z,41.40
2018-07-04T06:57:35.774Z,41.10
2018-07-04T07:00:03.074Z,41.10
2018-07-04T07:02:30.435Z,40.40
2018-07-04T07:05:09.968Z,40.30
2018-07-04T07:07:49.719Z,41.20
2018-07-04T07:10:29.509Z,39.50
2018-07-04T07:13:09.030Z,39.60
2018-07-04T07:15:48.568Z,39.30
2018-07-04T07:18:28.226Z,38.10
2018-07-04T07:21:07.956Z,38.60
2018-07-04T07:23:47.636Z,38.30
2018-07-04T07:26:27.385Z,37.60
2018-07-04T07:29:07.125Z,36.40
2018-07-04T07:31:47.032Z,36.40
2018-07-04T07:34:26.790Z,36.40
2018-07-04T07:37:06.314Z,36.50
2018-07-04T07:39:45.976Z,36.50
2018-07-04T07:42:25.590Z,35.40
2018-07-04T07:45:05.257Z,34.70
2018-07-04T07:47:44.984Z,33.40
2018-07-04T07:50:24.790Z,32.90
2018-07-04T07:53:04.428Z,32.40
2018-07-04T07:55:43.894Z,32.10
2018-07-04T07:58:23.365Z,32.20
2018-07-04T08:01:02.960Z,31.90
2018-07-04T08:03:42.566Z,30.70
2018-07-04T08:06:22.236Z,30.00
2018-07-04T08:09:02.057Z,30.00
2018-07-04T08:11:41.759Z,29.90
2018-07-04T08:14:21.558Z,29.70
2018-07-04T08:17:01.375Z,29.40
2018-07-04T08:19:41.117Z,29.10
2018-07-04T08:22:20.670Z,28.80
2018-07-04T08:25:00.256Z,28.80
2018-07-04T08:27:39.859Z,28.20
2018-07-04T08:30:19.791Z,28.20
2018-07-04T08:32:59.370Z,27.60
2018-07-04T08:35:39.059Z,27.70
2018-07-04T08:38:18.662Z,27.30
2018-07-04T08:40:58.258Z,26.70
2018-07-04T08:43:38.114Z,26.50
2018-07-04T08:46:17.939Z,26.40
2018-07-04T08:48:57.675Z,26.20
2018-07-04T08:51:37.432Z,26.00
2018-07-04T08:54:17.092Z,25.80
2018-07-04T08:56:56.658Z,26.30
2018-07-04T08:59:36.358Z,25.70
2018-07-04T09:02:16.075Z,25.00
2018-07-04T09:04:55.731Z,25.10
2018-07-04T09:07:35.312Z,25.10
2018-07-04T09:10:15.111Z,25.10
2018-07-04T09:12:54.745Z,25.10
2018-07-04T09:15:34.495Z,25.10
2018-07-04T09:18:14.118Z,25.10
2018-07-04T09:20:53.889Z,25.20
2018-07-04T09:23:33.406Z,25.20
2018-07-04T09:26:13.215Z,25.20
2018-07-04T09:28:53.304Z,25.30
2018-07-04T09:31:33.199Z,25.40
2018-07-04T09:34:13.007Z,25.20
2018-07-04T09:36:52.521Z,25.30
2018-07-04T09:39:32.243Z,24.50
2018-07-04T09:42:11.811Z,24.80
2018-07-04T09:44:51.453Z,24.20
2018-07-04T09:47:31.090Z,24.40
2018-07-04T09:50:10.770Z,24.70
2018-07-04T09:52:50.395Z,24.00
2018-07-04T09:55:29.952Z,24.20
2018-07-04T09:58:09.713Z,24.00
2018-07-04T10:00:54.778Z,24.30
2018-07-04T10:03:34.446Z,23.60
2018-07-04T10:06:14.054Z,24.40
2018-07-04T10:08:55.009Z,23.90
2018-07-04T10:11:34.716Z,24.40
2018-07-04T10:14:14.466Z,24.00
2018-07-04T10:16:54.147Z,23.90
2018-07-04T10:19:33.941Z,24.10
2018-07-04T10:22:13.580Z,23.80
2018-07-04T10:24:53.128Z,24.70
2018-07-04T10:27:33.093Z,24.00
2018-07-04T10:30:13.218Z,24.40
2018-07-04T10:32:52.906Z,24.10
2018-07-04T10:35:32.585Z,23.90
2018-07-04T10:38:12.251Z,24.10
2018-07-04T10:40:51.799Z,23.80
2018-07-04T10:43:31.543Z,24.40
2018-07-04T10:46:11.259Z,23.80
2018-07-04T10:48:50.847Z,23.70
2018-07-04T10:51:30.421Z,23.90
2018-07-04T10:54:10.011Z,23.50
2018-07-04T10:56:49.626Z,23.50
2018-07-04T10:59:29.220Z,24.10
2018-07-04T11:02:08.897Z,24.20
2018-07-04T11:04:48.577Z,24.30
2018-07-04T11:07:28.107Z,23.80
2018-07-04T11:10:08.527Z,24.20
2018-07-04T11:12:48.137Z,25.80
2018-07-04T11:15:27.812Z,24.70
2018-07-04T11:18:07.379Z,24.70
2018-07-04T11:20:47.042Z,23.60
2018-07-04T11:23:26.779Z,23.70
2018-07-04T11:26:06.562Z,24.70
2018-07-04T11:28:46.604Z,24.40
2018-07-04T11:31:26.244Z,24.50
2018-07-04T11:34:05.926Z,24.90
2018-07-04T11:36:45.698Z,24.90
2018-07-04T11:39:25.260Z,24.90
2018-07-04T11:42:05.000Z,24.90
2018-07-04T11:44:44.677Z,24.80
2018-07-04T11:47:12.027Z,24.80
2018-07-04T11:49:39.364Z,24.80
2018-07-04T11:52:06.739Z,24.80
2018-07-04T11:54:34.038Z,24.80
2018-07-04T11:57:01.492Z,24.70
2018-07-04T11:59:28.721Z,24.70
2018-07-04T12:01:56.071Z,24.70
2018-07-04T12:04:36.217Z,24.70
2018-07-04T12:07:06.538Z,24.60
2018-07-04T12:09:34.379Z,24.60
2018-07-04T12:12:02.100Z,24.60
2018-07-04T12:14:30.133Z,24.30
2018-07-04T12:16:57.834Z,24.50
2018-07-04T12:19:25.679Z,24.60
2018-07-04T12:21:53.363Z,24.50
2018-07-04T12:24:20.737Z,24.40
2018-07-04T12:26:48.089Z,24.40
2018-07-04T12:29:15.407Z,24.50
2018-07-04T12:31:42.755Z,24.50
2018-07-04T12:34:10.073Z,24.50
2018-07-04T12:36:37.447Z,24.50
2018-07-04T12:39:05.109Z,24.50
2018-07-04T12:41:32.474Z,24.60
2018-07-04T12:43:59.804Z,24.60
2018-07-04T12:46:27.218Z,24.60
2018-07-04T12:48:59.607Z,24.80
2018-07-04T12:51:26.967Z,25.20
2018-07-04T12:53:58.557Z,24.10
2018-07-04T12:56:39.462Z,23.00
2018-07-04T12:59:19.217Z,21.90
2018-07-04T13:01:58.937Z,20.70
2018-07-04T13:04:38.618Z,20.30
2018-07-04T13:07:18.214Z,19.60
2018-07-04T13:09:57.875Z,18.40
2018-07-04T13:12:37.651Z,17.80
2018-07-04T13:15:17.235Z,18.20
2018-07-04T13:17:56.769Z,17.50
2018-07-04T13:20:36.446Z,16.60
2018-07-04T13:23:16.011Z,16.10
2018-07-04T13:25:56.162Z,15.80
2018-07-04T13:28:35.891Z,15.20
2018-07-04T13:31:15.515Z,14.00
2018-07-04T13:33:55.346Z,13.50
2018-07-04T13:36:35.038Z,12.70
2018-07-04T13:39:15.942Z,11.60
2018-07-04T13:41:55.592Z,11.50
2018-07-04T13:44:35.345Z,11.30
2018-07-04T13:47:15.160Z,11.50
2018-07-04T13:49:54.735Z,10.20
2018-07-04T13:52:34.316Z,10.60
2018-07-04T13:55:13.950Z,10.60
2018-07-04T13:57:54.049Z,10.80
2018-07-04T14:00:33.944Z,11.00
2018-07-04T14:03:13.750Z,11.20
2018-07-04T14:05:53.394Z,10.10
2018-07-04T14:08:33.190Z,9.50
2018-07-04T14:11:13.094Z,8.20
2018-07-04T14:13:53.179Z,8.80
2018-07-04T14:16:33.450Z,8.30
2018-07-04T14:19:13.214Z,8.30
2018-07-04T14:21:52.780Z,6.70
2018-07-04T14:24:32.565Z,7.40
2018-07-04T14:27:12.285Z,7.40
2018-07-04T14:29:51.870Z,7.10
2018-07-04T14:32:31.486Z,6.70
2018-07-04T14:35:11.122Z,6.70
2018-07-04T14:37:50.783Z,6.80
2018-07-04T14:40:30.778Z,6.30
2018-07-04T14:43:10.248Z,5.80
2018-07-04T14:45:49.783Z,6.10
2018-07-04T14:48:29.394Z,3.90
2018-07-04T14:51:09.003Z,4.80
2018-07-04T14:53:48.968Z,4.90
2018-07-04T14:56:28.477Z,4.90
2018-07-04T14:59:08.268Z,3.50
2018-07-04T15:01:47.790Z,4.20
2018-07-04T15:04:27.651Z,4.20
2018-07-04T15:07:07.306Z,3.70
2018-07-04T15:09:47.060Z,3.80
2018-07-04T15:12:26.530Z,3.60
2018-07-04T15:15:06.297Z,1.90
2018-07-04T15:17:45.891Z,2.80
2018-07-04T15:20:25.655Z,2.60
2018-07-04T15:23:05.150Z,1.90
2018-07-04T15:25:44.823Z,3.20
2018-07-04T15:28:24.560Z,3.00
2018-07-04T15:31:04.211Z,2.30
2018-07-04T15:33:43.830Z,2.10
2018-07-04T15:36:23.562Z,2.20
2018-07-04T15:39:03.306Z,2.40
2018-07-04T15:41:43.003Z,2.70
2018-07-04T15:44:22.606Z,2.80
2018-07-04T15:47:02.702Z,3.50
2018-07-04T15:49:46.497Z,1.40
2018-07-04T15:52:26.153Z,1.50
2018-07-04T15:55:05.622Z,1.90
2018-07-04T15:57:45.314Z,1.50
2018-07-04T16:00:24.933Z,1.10
2018-07-04T16:03:04.658Z,1.00
2018-07-04T16:05:44.361Z,1.00
2018-07-04T16:08:23.962Z,1.00
2018-07-04T16:11:03.606Z,1.00
2018-07-04T16:16:17.150Z,1.00
2018-07-04T16:18:56.872Z,1.30
2018-07-04T16:21:36.427Z,1.00
2018-07-04T16:24:16.052Z,1.00
2018-07-04T16:26:55.733Z,1.00
2018-07-04T16:29:35.735Z,1.00
2018-07-04T16:32:15.340Z,2.30
2018-07-04T16:34:54.877Z,3.40
2018-07-04T16:37:34.635Z,4.50
2018-07-04T16:40:14.238Z,5.90
2018-07-04T16:42:53.771Z,7.90
2018-07-04T16:45:33.386Z,7.50
2018-07-04T16:48:13.216Z,7.50
2018-07-04T16:50:53.987Z,8.70
2018-07-04T16:53:33.508Z,9.20
2018-07-04T16:56:13.400Z,10.20
2018-07-04T16:58:53.305Z,10.80
2018-07-04T17:01:32.970Z,11.30
2018-07-04T17:04:12.521Z,11.70
2018-07-04T17:06:52.091Z,12.00
2018-07-04T17:09:31.748Z,12.10
2018-07-04T17:12:11.435Z,12.40
2018-07-04T17:14:51.090Z,12.70
2018-07-04T17:17:30.868Z,13.00
2018-07-04T17:20:10.601Z,13.60
2018-07-04T17:22:50.335Z,13.90
2018-07-04T17:25:29.906Z,14.20
2018-07-04T17:28:09.511Z,14.80
2018-07-04T17:30:49.063Z,15.70
2018-07-04T17:33:28.692Z,15.70
2018-07-04T17:36:08.600Z,15.50
2018-07-04T17:38:48.260Z,15.50
2018-07-04T17:41:28.083Z,15.40
2018-07-04T17:44:07.831Z,15.30
2018-07-04T17:46:47.628Z,15.20
2018-07-04T17:49:27.629Z,15.10
2018-07-04T17:52:07.316Z,15.10
2018-07-04T17:54:47.090Z,15.00
2018-07-04T17:57:26.859Z,15.70
2018-07-04T18:00:06.562Z,15.60
2018-07-04T18:02:46.138Z,16.00
2018-07-04T18:05:25.734Z,16.40
2018-07-04T18:08:05.370Z,17.00
2018-07-04T18:10:44.918Z,16.70
2018-07-04T18:13:24.750Z,16.80
2018-07-04T18:16:04.401Z,17.00
2018-07-04T18:18:44.308Z,18.30
2018-07-04T18:21:23.860Z,18.80
2018-07-04T18:24:04.266Z,18.90
2018-07-04T18:26:43.971Z,20.20
2018-07-04T18:29:24.874Z,20.70
2018-07-04T18:32:05.154Z,20.80
2018-07-04T18:34:44.773Z,20.60
2018-07-04T18:37:24.850Z,20.80
2018-07-04T18:40:04.614Z,21.20
2018-07-04T18:42:44.415Z,22.00
2018-07-04T18:45:24.444Z,22.30
2018-07-04T18:48:04.402Z,22.70
2018-07-04T18:50:44.184Z,23.20
2018-07-04T18:53:23.952Z,23.40
2018-07-04T18:56:03.809Z,23.50
2018-07-04T18:58:43.911Z,24.00
2018-07-04T19:01:23.709Z,24.10
2018-07-04T19:04:03.441Z,24.60
2018-07-04T19:06:42.960Z,25.10
2018-07-04T19:09:22.688Z,25.00
2018-07-04T19:12:02.662Z,24.90
2018-07-04T19:14:42.302Z,24.90
2018-07-04T19:17:21.906Z,24.80
2018-07-04T19:20:01.596Z,24.80
2018-07-04T19:22:41.425Z,25.10
2018-07-04T19:25:21.124Z,26.70
2018-07-04T19:28:01.130Z,26.30
2018-07-04T19:30:41.135Z,26.10
2018-07-04T19:33:20.760Z,26.30
2018-07-04T19:36:00.422Z,27.00
2018-07-04T19:38:40.214Z,27.60
2018-07-04T19:41:19.988Z,27.20
2018-07-04T19:43:59.613Z,27.10
2018-07-04T19:46:40.416Z,27.40
2018-07-04T19:49:20.848Z,27.90
2018-07-04T19:52:00.508Z,28.10
2018-07-04T19:54:40.076Z,28.30
2018-07-04T19:57:19.774Z,28.60
2018-07-04T19:59:59.521Z,29.20
2018-07-04T20:02:39.276Z,29.20
2018-07-04T20:05:19.000Z,29.70
2018-07-04T20:07:58.721Z,29.70
2018-07-04T20:10:38.451Z,29.60
2018-07-04T20:13:18.124Z,29.70
2018-07-04T20:15:57.747Z,30.10
2018-07-04T20:18:37.326Z,30.60
2018-07-04T20:21:16.934Z,30.80
2018-07-04T20:23:56.631Z,30.70
2018-07-04T20:26:36.248Z,31.00
2018-07-04T20:29:16.557Z,31.50
2018-07-04T20:31:56.236Z,31.90
2018-07-04T20:34:35.948Z,32.30
2018-07-04T20:37:15.510Z,32.60
2018-07-04T20:39:55.153Z,32.90
2018-07-04T20:42:35.369Z,33.20
2018-07-04T20:45:15.099Z,33.50
2018-07-04T20:47:54.870Z,33.60
2018-07-04T20:50:34.602Z,33.70
2018-07-04T20:53:14.047Z,33.90
2018-07-04T20:55:53.697Z,34.00
2018-07-04T20:58:33.492Z,34.00
2018-07-04T21:01:13.147Z,34.60
2018-07-04T21:03:52.800Z,35.80
2018-07-04T21:06:32.295Z,35.80
2018-07-04T21:09:11.842Z,35.70
2018-07-04T21:11:51.422Z,35.60
2018-07-04T21:14:31.202Z,35.60
2018-07-04T21:17:10.790Z,36.40
2018-07-04T21:19:50.924Z,35.40
2018-07-04T21:22:30.394Z,35.40
2018-07-04T21:25:09.922Z,36.20
2018-07-04T21:27:49.746Z,36.20
2018-07-04T21:30:29.457Z,36.00
2018-07-04T21:33:09.111Z,36.90
2018-07-04T21:38:22.688Z,37.60
2018-07-04T21:41:02.289Z,37.80
2018-07-04T21:43:42.116Z,37.50
2018-07-04T21:46:21.757Z,37.90
2018-07-04T21:49:01.507Z,37.70
2018-07-04T21:51:41.060Z,38.00
2018-07-04T21:54:20.755Z,38.80
2018-07-04T21:57:00.415Z,39.00
2018-07-04T21:59:40.103Z,38.70
2018-07-04T22:02:19.725Z,38.90
2018-07-04T22:04:59.636Z,39.00
2018-07-04T22:07:39.265Z,39.20
2018-07-04T22:10:18.911Z,38.80
2018-07-04T22:12:58.602Z,38.50
2018-07-04T22:15:38.238Z,38.60
2018-07-04T22:18:17.868Z,38.80
2018-07-04T22:20:57.507Z,39.10
2018-07-04T22:23:37.039Z,39.10
2018-07-04T22:26:16.866Z,38.50
2018-07-04T22:28:56.412Z,38.90
2018-07-04T22:31:36.574Z,39.40
2018-07-04T22:34:17.119Z,38.80
2018-07-04T22:36:56.710Z,38.90
2018-07-04T22:39:36.304Z,38.90
2018-07-04T22:42:16.132Z,38.60
2018-07-04T22:44:55.950Z,39.10
2018-07-04T22:47:35.566Z,40.10
2018-07-04T22:50:15.226Z,40.90
2018-07-04T22:52:55.086Z,41.40
2018-07-04T22:55:34.905Z,41.50
2018-07-04T22:58:14.846Z,41.50
2018-07-04T23:00:54.476Z,41.40
2018-07-04T23:03:34.066Z,40.80
2018-07-04T23:06:13.677Z,41.30
2018-07-04T23:08:53.374Z,41.30
2018-07-04T23:11:33.035Z,41.10
2018-07-04T23:14:13.006Z,41.20
2018-07-04T23:16:52.651Z,41.20
2018-07-04T23:19:32.394Z,41.20
2018-07-04T23:22:12.106Z,41.00
2018-07-04T23:24:51.975Z,41.10
2018-07-04T23:27:31.590Z,41.50
2018-07-04T23:30:12.079Z,41.00
2018-07-04T23:32:51.779Z,42.40
2018-07-04T23:35:31.454Z,42.00
2018-07-04T23:38:11.130Z,41.70
2018-07-04T23:40:50.790Z,41.30
2018-07-04T23:43:30.419Z,42.30
2018-07-04T23:46:10.058Z,42.60
2018-07-04T23:48:49.648Z,43.00
2018-07-04T23:51:29.254Z,43.40
2018-07-04T23:54:09.014Z,42.70
2018-07-04T23:56:48.742Z,42.20
2018-07-04T23:59:28.358Z,43.00
